SWA1080 KLAX-KSJC
Flight info
| Callsign | SWA1080 |
|---|---|
| Flight time | N/A |
| Altitude | 36000 |
| Route | SUMMR2 SCTRR TROXX SILCN6 |
| Aircraft | B738/M-SADE2E3GIJ4RWZ/LB1D1 |
Departure
| Time | 2026-04-21 03:48 |
|---|---|
| Airport | Los Angeles International Airport (KLAX) |
Arrival
| Time | N/A |
|---|---|
| Airport | Norman Y. Mineta San Jose International Airport (KSJC) |
| Time | Latitude | Longitude | Altitude | Speed | Heading |
|---|---|---|---|---|---|
| 2026-04-21 03:32 | 33.94660 | -118.40327 | 94 ft | 0 kts | 263° |
| 2026-04-21 03:38 | 33.94660 | -118.40319 | 93 ft | 4 kts | 262° |
| 2026-04-21 03:38 | 33.94663 | -118.40291 | 92 ft | 2 kts | 262° |
| 2026-04-21 03:38 | 33.94664 | -118.40263 | 92 ft | 4 kts | 294° |
| 2026-04-21 03:38 | 33.94648 | -118.40245 | 94 ft | 3 kts | 352° |
| 2026-04-21 03:39 | 33.94664 | -118.40248 | 93 ft | 4 kts | 353° |
| 2026-04-21 03:39 | 33.94690 | -118.40252 | 95 ft | 4 kts | 353° |
| 2026-04-21 03:39 | 33.94716 | -118.40255 | 94 ft | 2 kts | 353° |
| 2026-04-21 03:39 | 33.94717 | -118.40255 | 96 ft | 4 kts | 353° |
| 2026-04-21 03:43 | 33.94728 | -118.40257 | 95 ft | 3 kts | 353° |
| 2026-04-21 03:43 | 33.94766 | -118.40263 | 94 ft | 7 kts | 353° |
| 2026-04-21 03:43 | 33.94821 | -118.40278 | 96 ft | 8 kts | 340° |
| 2026-04-21 03:44 | 33.94875 | -118.40275 | 99 ft | 8 kts | 29° |
| 2026-04-21 03:44 | 33.94901 | -118.40220 | 99 ft | 8 kts | 80° |
| 2026-04-21 03:44 | 33.94908 | -118.40156 | 99 ft | 8 kts | 86° |
| 2026-04-21 03:44 | 33.94913 | -118.40092 | 98 ft | 7 kts | 84° |
| 2026-04-21 03:45 | 33.94920 | -118.40031 | 98 ft | 7 kts | 82° |
| 2026-04-21 03:45 | 33.94927 | -118.39972 | 99 ft | 7 kts | 80° |
| 2026-04-21 03:45 | 33.94950 | -118.39926 | 100 ft | 0 kts | 32° |
| 2026-04-21 03:46 | 33.94977 | -118.39914 | 103 ft | 10 kts | 8° |
| 2026-04-21 03:46 | 33.95036 | -118.39958 | 108 ft | 11 kts | 285° |
| 2026-04-21 03:47 | 33.95031 | -118.40047 | 108 ft | 11 kts | 263° |
| 2026-04-21 03:47 | 33.94992 | -118.40417 | 108 ft | 83 kts | 263° |
| 2026-04-21 03:47 | 33.94895 | -118.41390 | 108 ft | 149 kts | 264° |
| 2026-04-21 03:47 | 33.94773 | -118.42808 | 447 ft | 177 kts | 264° |
| 2026-04-21 03:48 | 33.94662 | -118.44194 | 1690 ft | 155 kts | 264° |
| 2026-04-21 03:48 | 33.94538 | -118.45460 | 2521 ft | 160 kts | 263° |
| 2026-04-21 03:48 | 33.94354 | -118.46881 | 2943 ft | 187 kts | 262° |
| 2026-04-21 03:48 | 33.94259 | -118.48578 | 3219 ft | 217 kts | 268° |
| 2026-04-21 03:49 | 33.94214 | -118.50493 | 3570 ft | 238 kts | 269° |
| 2026-04-21 03:49 | 33.94117 | -118.52594 | 3993 ft | 259 kts | 264° |
| 2026-04-21 03:49 | 33.93941 | -118.54780 | 4858 ft | 264 kts | 263° |
| 2026-04-21 03:49 | 33.93756 | -118.56997 | 5723 ft | 267 kts | 262° |
| 2026-04-21 03:50 | 33.93574 | -118.59240 | 6574 ft | 271 kts | 262° |
| 2026-04-21 03:50 | 33.93394 | -118.61512 | 7417 ft | 273 kts | 262° |
| 2026-04-21 03:50 | 33.93212 | -118.63800 | 8265 ft | 276 kts | 261° |
| 2026-04-21 03:50 | 33.93031 | -118.66112 | 9108 ft | 279 kts | 261° |
| 2026-04-21 03:51 | 33.92850 | -118.68448 | 9963 ft | 281 kts | 261° |
| 2026-04-21 03:51 | 33.92664 | -118.70830 | 10500 ft | 295 kts | 261° |
| 2026-04-21 03:51 | 33.92463 | -118.73366 | 10678 ft | 320 kts | 261° |
| 2026-04-21 03:51 | 33.92248 | -118.76114 | 11019 ft | 337 kts | 261° |
| 2026-04-21 03:52 | 33.92029 | -118.78944 | 11651 ft | 342 kts | 261° |
| 2026-04-21 03:52 | 33.91807 | -118.81808 | 12022 ft | 346 kts | 261° |
| 2026-04-21 03:52 | 33.91646 | -118.84705 | 12770 ft | 349 kts | 265° |
| 2026-04-21 03:52 | 33.91717 | -118.87626 | 13658 ft | 350 kts | 269° |
| 2026-04-21 03:53 | 33.91860 | -118.90567 | 14405 ft | 353 kts | 269° |
| 2026-04-21 03:53 | 33.91988 | -118.93534 | 15102 ft | 357 kts | 268° |
| 2026-04-21 03:53 | 33.92090 | -118.96544 | 15819 ft | 361 kts | 267° |
| 2026-04-21 03:53 | 33.92188 | -118.99577 | 16533 ft | 365 kts | 269° |
| 2026-04-21 03:54 | 33.92751 | -119.02608 | 17186 ft | 381 kts | 288° |
| 2026-04-21 03:54 | 33.94048 | -119.05441 | 17876 ft | 391 kts | 296° |
| 2026-04-21 03:54 | 33.95506 | -119.08175 | 18497 ft | 396 kts | 297° |
| 2026-04-21 03:54 | 33.97019 | -119.10979 | 19057 ft | 400 kts | 297° |
| 2026-04-21 03:55 | 33.98514 | -119.13814 | 19681 ft | 402 kts | 297° |
| 2026-04-21 03:55 | 33.99998 | -119.16679 | 20313 ft | 404 kts | 297° |
| 2026-04-21 03:55 | 34.01747 | -119.19371 | 20890 ft | 417 kts | 313° |
| 2026-04-21 03:55 | 34.04090 | -119.21494 | 21523 ft | 423 kts | 320° |
| 2026-04-21 03:56 | 34.06516 | -119.23530 | 22120 ft | 426 kts | 321° |
| 2026-04-21 03:56 | 34.08965 | -119.25573 | 22672 ft | 429 kts | 321° |
| 2026-04-21 03:56 | 34.11423 | -119.27639 | 23242 ft | 432 kts | 320° |
| 2026-04-21 03:56 | 34.13892 | -119.29734 | 23777 ft | 435 kts | 320° |
| 2026-04-21 03:57 | 34.16363 | -119.31848 | 24253 ft | 436 kts | 320° |
| 2026-04-21 03:57 | 34.18808 | -119.33950 | 24731 ft | 438 kts | 320° |
| 2026-04-21 03:57 | 34.21290 | -119.36091 | 25214 ft | 440 kts | 320° |
| 2026-04-21 03:57 | 34.23785 | -119.38246 | 25679 ft | 441 kts | 320° |
| 2026-04-21 03:58 | 34.26282 | -119.40405 | 26125 ft | 444 kts | 320° |
| 2026-04-21 03:58 | 34.28799 | -119.42583 | 26563 ft | 446 kts | 320° |
| 2026-04-21 03:58 | 34.31326 | -119.44769 | 26990 ft | 448 kts | 320° |
| 2026-04-21 03:58 | 34.33866 | -119.46969 | 27398 ft | 450 kts | 319° |
| 2026-04-21 03:59 | 34.36414 | -119.49176 | 27810 ft | 452 kts | 319° |
| 2026-04-21 03:59 | 34.38980 | -119.51401 | 28202 ft | 454 kts | 319° |
| 2026-04-21 03:59 | 34.41545 | -119.53629 | 28598 ft | 456 kts | 319° |
| 2026-04-21 04:00 | 34.46575 | -119.58272 | 29362 ft | 459 kts | 317° |
| 2026-04-21 04:00 | 34.49085 | -119.60668 | 29738 ft | 461 kts | 317° |
| 2026-04-21 04:00 | 34.51606 | -119.63081 | 30085 ft | 463 kts | 317° |
| 2026-04-21 04:00 | 34.54140 | -119.65499 | 30423 ft | 464 kts | 317° |
| 2026-04-21 04:01 | 34.56683 | -119.67916 | 30783 ft | 464 kts | 317° |
| 2026-04-21 04:01 | 34.59224 | -119.70323 | 31241 ft | 462 kts | 317° |
| 2026-04-21 04:01 | 34.61751 | -119.72713 | 31691 ft | 460 kts | 317° |
| 2026-04-21 04:01 | 34.64274 | -119.75100 | 32069 ft | 460 kts | 317° |
| 2026-04-21 04:02 | 34.66795 | -119.77487 | 32416 ft | 460 kts | 317° |
| 2026-04-21 04:02 | 34.69312 | -119.79873 | 32817 ft | 458 kts | 317° |
| 2026-04-21 04:02 | 34.71820 | -119.82252 | 33229 ft | 457 kts | 316° |
| 2026-04-21 04:02 | 34.74326 | -119.84630 | 33601 ft | 457 kts | 316° |
| 2026-04-21 04:03 | 34.76825 | -119.87005 | 33985 ft | 456 kts | 316° |
| 2026-04-21 04:03 | 34.79285 | -119.89344 | 34357 ft | 454 kts | 316° |
| 2026-04-21 04:03 | 34.81770 | -119.91710 | 34658 ft | 453 kts | 316° |
| 2026-04-21 04:03 | 34.84255 | -119.94077 | 34944 ft | 454 kts | 316° |
| 2026-04-21 04:04 | 34.86738 | -119.96445 | 35254 ft | 453 kts | 316° |
| 2026-04-21 04:04 | 34.89214 | -119.98807 | 35588 ft | 451 kts | 316° |
| 2026-04-21 04:04 | 34.91678 | -120.01159 | 35929 ft | 450 kts | 316° |
| 2026-04-21 04:05 | 34.96636 | -120.05903 | 36044 ft | 456 kts | 316° |
| 2026-04-21 04:05 | 35.01578 | -120.10632 | 36043 ft | 452 kts | 316° |
| 2026-04-21 04:06 | 35.06492 | -120.15342 | 36038 ft | 449 kts | 316° |
| 2026-04-21 04:06 | 35.11396 | -120.20055 | 36047 ft | 448 kts | 315° |
| 2026-04-21 04:07 | 35.16287 | -120.24761 | 36056 ft | 448 kts | 315° |
| 2026-04-21 04:07 | 35.21248 | -120.29405 | 36052 ft | 450 kts | 317° |
| 2026-04-21 04:08 | 35.26251 | -120.33937 | 36050 ft | 451 kts | 317° |
| 2026-04-21 04:08 | 35.31287 | -120.38516 | 36051 ft | 451 kts | 317° |
| 2026-04-21 04:08 | 35.33797 | -120.40831 | 35063 ft | 463 kts | 315° |